Time;durP1;ratioP1;P1;durP2;ratioP2;P2;SDS_P1;SDS_P2;PMS_P1;PMS_P2;Temp;Humidity;BMP_temperature;BMP_pressure;BME280_temperature;BME280_humidity;BME280_pressure;Samples;Min_cycle;Max_cycle;Signal;HPM_P1;HPM_P2
2023/05/24 00:02:06;;;;;;;38.15;7.22;;;8.80;99.90;;;;;;5111228;27;20047;-80
2023/05/24 00:04:32;;;;;;;35.30;7.95;;;8.80;99.90;;;;;;5142993;27;20632;-80
2023/05/24 00:07:02;;;;;;;43.05;8.02;;;8.90;99.90;;;;;;5133058;27;20065;-80
2023/05/24 00:09:28;;;;;;;36.15;8.45;;;8.80;99.90;;;;;;5127405;27;20058;-80
2023/05/24 00:11:54;;;;;;;36.40;7.20;;;8.90;99.90;;;;;;5132547;27;20131;-80
2023/05/24 00:14:20;;;;;;;29.27;6.35;;;8.90;99.90;;;;;;5129381;27;20051;-80
2023/05/24 00:16:46;;;;;;;32.60;6.38;;;8.90;99.90;;;;;;5131363;27;20147;-80
2023/05/24 00:19:17;;;;;;;30.02;6.95;;;8.90;99.90;;;;;;5128789;27;20085;-80
2023/05/24 00:21:44;;;;;;;32.92;6.55;;;8.90;99.90;;;;;;5114005;27;20047;-80
2023/05/24 00:24:10;;;;;;;38.45;7.35;;;8.90;99.90;;;;;;5149611;27;20466;-80
2023/05/24 00:26:36;;;;;;;36.10;6.25;;;8.90;99.90;;;;;;5101739;27;20046;-80
2023/05/24 00:29:02;;;;;;;34.88;6.93;;;9.00;99.90;;;;;;5131015;27;20144;-80
2023/05/24 00:31:28;;;;;;;27.60;6.03;;;9.00;99.90;;;;;;5114629;27;20046;-80
2023/05/24 00:33:54;;;;;;;33.92;5.85;;;9.10;99.90;;;;;;5150431;27;20077;-80
2023/05/24 00:36:20;;;;;;;32.70;6.97;;;9.10;99.90;;;;;;5113973;27;20470;-80
2023/05/24 00:38:45;;;;;;;33.58;6.32;;;9.10;99.90;;;;;;5131799;27;20047;-80
2023/05/24 00:41:11;;;;;;;39.45;7.22;;;9.20;99.90;;;;;;5114088;27;20508;-80
2023/05/24 00:43:37;;;;;;;38.92;6.43;;;9.20;99.90;;;;;;5128251;27;20035;-80
2023/05/24 00:46:15;;;;;;;33.70;5.63;;;9.20;99.90;;;;;;5114192;27;20043;-80
2023/05/24 00:48:41;;;;;;;30.08;6.63;;;9.20;99.90;;;;;;5131363;27;20046;-80
2023/05/24 00:51:08;;;;;;;29.15;5.68;;;9.10;99.90;;;;;;5131134;27;20035;-80
2023/05/24 00:53:36;;;;;;;32.63;6.25;;;9.10;99.90;;;;;;5130972;27;20046;-80
2023/05/24 00:56:02;;;;;;;26.85;6.05;;;9.10;99.90;;;;;;5131264;27;20129;-80
2023/05/24 00:58:29;;;;;;;22.83;5.80;;;9.10;99.90;;;;;;5130793;27;20055;-80
2023/05/24 01:00:59;;;;;;;35.92;6.72;;;9.10;99.90;;;;;;5149883;27;20039;-80
2023/05/24 01:03:28;;;;;;;32.28;6.20;;;9.00;99.90;;;;;;5128111;27;20134;-80
2023/05/24 01:06:01;;;;;;;33.50;6.18;;;9.00;99.90;;;;;;5117424;27;20430;-80
2023/05/24 01:08:41;;;;;;;;;;;9.00;99.90;;;;;;5112161;27;20122;-80
2023/05/24 01:11:28;;;;;;;33.15;6.28;;;9.00;99.90;;;;;;5099273;27;19923;-80
2023/05/24 01:13:58;;;;;;;31.88;5.63;;;8.90;99.90;;;;;;5120108;27;20050;-80
2023/05/24 01:16:30;;;;;;;28.20;5.80;;;8.90;99.90;;;;;;5131160;27;20190;-80
2023/05/24 01:19:01;;;;;;;32.88;6.13;;;8.90;99.90;;;;;;5126336;27;20058;-80
2023/05/24 01:21:55;;;;;;;27.63;6.10;;;8.90;99.90;;;;;;5125647;27;20043;-80
2023/05/24 01:24:27;;;;;;;;;;;8.80;99.90;;;;;;5142240;27;20039;-80
2023/05/24 01:27:05;;;;;;;25.90;5.70;;;8.80;99.90;;;;;;5110035;27;19920;-81
2023/05/24 01:29:32;;;;;;;32.47;6.80;;;8.80;99.90;;;;;;5128346;27;20039;-80
2023/05/24 01:31:58;;;;;;;30.15;6.32;;;8.80;99.90;;;;;;5126716;27;20494;-80
2023/05/24 01:34:25;;;;;;;29.08;7.15;;;8.80;99.90;;;;;;5147279;27;20038;-80
2023/05/24 01:36:51;;;;;;;29.27;5.90;;;8.90;99.90;;;;;;5126978;27;20043;-81
2023/05/24 01:39:17;;;;;;;33.88;5.78;;;9.10;99.90;;;;;;5124278;27;20051;-80
2023/05/24 01:42:02;;;;;;;33.92;6.70;;;9.00;99.90;;;;;;5119689;27;20456;-81
2023/05/24 01:44:36;;;;;;;35.42;5.72;;;9.00;99.90;;;;;;5112508;27;20095;-80
2023/05/24 01:47:24;;;;;;;33.65;6.18;;;9.10;99.90;;;;;;5129267;27;20051;-80
2023/05/24 01:49:53;;;;;;;29.10;5.35;;;9.10;99.90;;;;;;5110193;27;20103;-80
2023/05/24 01:52:22;;;;;;;34.45;7.10;;;9.10;99.90;;;;;;5126581;27;20047;-81
2023/05/24 01:54:52;;;;;;;26.55;6.40;;;9.10;99.90;;;;;;5102063;27;20050;-81
2023/05/24 01:57:20;;;;;;;36.30;7.05;;;9.10;99.90;;;;;;5130035;27;20170;-80
2023/05/24 01:59:46;;;;;;;28.90;6.13;;;9.10;99.90;;;;;;5127483;27;20059;-80
2023/05/24 02:02:12;;;;;;;33.05;6.30;;;9.10;99.90;;;;;;5109995;27;20039;-80
2023/05/24 02:04:38;;;;;;;26.88;6.75;;;9.10;99.90;;;;;;5111326;27;20445;-80
2023/05/24 02:07:05;;;;;;;35.47;6.20;;;9.10;99.90;;;;;;5092617;27;20047;-80
2023/05/24 02:09:31;;;;;;;26.88;5.70;;;9.10;99.90;;;;;;5120351;27;20043;-80
2023/05/24 02:11:56;;;;;;;32.90;6.07;;;9.10;99.90;;;;;;5109678;27;20039;-80
2023/05/24 02:14:23;;;;;;;26.08;6.40;;;9.10;99.90;;;;;;5120123;27;20046;-80
2023/05/24 02:16:49;;;;;;;37.85;6.78;;;9.20;99.90;;;;;;5123628;27;20147;-80
2023/05/24 02:19:16;;;;;;;34.97;5.65;;;9.10;99.90;;;;;;5123236;27;20042;-81
2023/05/24 02:21:42;;;;;;;29.25;6.82;;;9.10;99.90;;;;;;5125345;27;20055;-80
2023/05/24 02:24:10;;;;;;;35.33;6.90;;;9.10;99.90;;;;;;5122856;27;20046;-80
2023/05/24 02:26:36;;;;;;;27.70;5.75;;;9.20;99.90;;;;;;5149148;27;20362;-80
2023/05/24 02:29:02;;;;;;;26.95;5.72;;;9.10;99.90;;;;;;5125818;27;20062;-80
2023/05/24 02:31:28;;;;;;;34.03;6.88;;;9.10;99.90;;;;;;5109458;28;20083;-80
2023/05/24 02:33:55;;;;;;;31.70;6.35;;;9.10;99.90;;;;;;5123456;27;20396;-80
2023/05/24 02:36:22;;;;;;;28.70;5.22;;;9.20;99.90;;;;;;5108319;28;20031;-80
2023/05/24 02:38:50;;;;;;;28.65;5.32;;;9.20;99.90;;;;;;5106472;27;20053;-80
2023/05/24 02:41:16;;;;;;;36.70;6.18;;;9.20;99.90;;;;;;5129573;27;20149;-80
2023/05/24 02:43:43;;;;;;;32.72;5.57;;;9.20;99.90;;;;;;5109725;27;20035;-80
2023/05/24 02:46:09;;;;;;;25.88;4.30;;;9.30;99.90;;;;;;5129582;27;20123;-80
2023/05/24 02:48:35;;;;;;;23.80;5.63;;;9.30;99.90;;;;;;5112374;27;20121;-80
2023/05/24 02:51:02;;;;;;;28.27;6.13;;;9.30;99.90;;;;;;5112363;27;20035;-80
2023/05/24 02:53:30;;;;;;;27.67;5.60;;;9.30;99.90;;;;;;5111762;27;20414;-80
2023/05/24 02:55:56;;;;;;;33.10;6.07;;;9.40;99.90;;;;;;5129393;27;20306;-80
2023/05/24 02:58:22;;;;;;;32.42;5.93;;;9.50;99.90;;;;;;5128163;27;20486;-80
2023/05/24 03:00:48;;;;;;;28.35;4.95;;;9.50;99.90;;;;;;5109434;28;20035;-80
2023/05/24 03:03:13;;;;;;;29.27;5.60;;;9.50;99.90;;;;;;5143666;27;20039;-80
2023/05/24 03:05:39;;;;;;;25.23;4.97;;;9.60;99.90;;;;;;5125367;28;20677;-80
2023/05/24 03:08:05;;;;;;;30.25;5.38;;;9.60;99.90;;;;;;5125145;27;20501;-80
2023/05/24 03:10:31;;;;;;;33.05;5.50;;;9.60;99.90;;;;;;5127364;27;20043;-81
2023/05/24 03:12:57;;;;;;;30.80;5.22;;;9.60;99.90;;;;;;5129947;27;20043;-80
2023/05/24 03:15:23;;;;;;;27.88;5.00;;;9.60;99.90;;;;;;5111936;27;20679;-80
2023/05/24 03:17:48;;;;;;;26.50;5.43;;;9.60;99.90;;;;;;5147362;27;20058;-80
2023/05/24 03:20:14;;;;;;;28.00;6.15;;;9.60;99.90;;;;;;5126595;28;20051;-80
2023/05/24 03:22:40;;;;;;;33.58;5.82;;;9.60;99.90;;;;;;5139406;27;20406;-80
2023/05/24 03:25:07;;;;;;;25.90;4.57;;;9.60;99.90;;;;;;5119847;28;20039;-80
2023/05/24 03:27:33;;;;;;;26.95;5.18;;;9.60;99.90;;;;;;5110064;27;20058;-79
2023/05/24 03:29:59;;;;;;;28.30;4.63;;;9.60;99.90;;;;;;5148415;27;20117;-80
2023/05/24 03:32:25;;;;;;;26.98;4.78;;;9.60;99.90;;;;;;5128641;27;20493;-79
2023/05/24 03:34:51;;;;;;;26.42;5.72;;;9.60;99.90;;;;;;5132751;27;20074;-80
2023/05/24 03:37:17;;;;;;;31.38;4.85;;;9.70;99.90;;;;;;5133343;27;20125;-79
2023/05/24 03:39:43;;;;;;;29.35;5.13;;;9.60;99.90;;;;;;5127883;27;20568;-80
2023/05/24 03:42:08;;;;;;;44.83;6.13;;;9.60;99.90;;;;;;5128283;27;20042;-80
2023/05/24 03:44:34;;;;;;;31.38;5.75;;;9.60;99.90;;;;;;5115793;27;20049;-80
2023/05/24 03:47:00;;;;;;;30.98;5.15;;;9.70;99.90;;;;;;5131578;27;20469;-80
2023/05/24 03:49:26;;;;;;;30.35;5.65;;;9.70;99.90;;;;;;5115149;27;20038;-80
2023/05/24 03:51:51;;;;;;;25.77;4.50;;;9.80;99.90;;;;;;5132981;27;20039;-80
2023/05/24 03:54:17;;;;;;;27.05;5.45;;;9.80;99.90;;;;;;5131595;27;20046;-80
2023/05/24 03:56:43;;;;;;;33.88;6.03;;;9.80;99.90;;;;;;5132812;27;20146;-80
2023/05/24 03:59:09;;;;;;;29.27;5.50;;;9.90;99.90;;;;;;5132650;27;20120;-79
2023/05/24 04:01:35;;;;;;;28.48;5.47;;;9.90;99.90;;;;;;5131947;27;20117;-80
2023/05/24 04:04:02;;;;;;;31.33;5.90;;;9.90;99.90;;;;;;5124447;27;20043;-81
2023/05/24 04:06:29;;;;;;;26.83;5.07;;;9.90;99.90;;;;;;5146363;27;20042;-79
2023/05/24 04:08:56;;;;;;;23.48;4.60;;;10.00;99.90;;;;;;5127742;27;20049;-79
2023/05/24 04:11:22;;;;;;;41.03;5.75;;;10.00;99.90;;;;;;5124389;27;20475;-80
2023/05/24 04:13:50;;;;;;;31.70;5.57;;;10.00;99.90;;;;;;5120938;27;20621;-80
2023/05/24 04:16:16;;;;;;;33.90;5.93;;;10.10;99.90;;;;;;5132241;27;20165;-80
2023/05/24 04:18:42;;;;;;;30.38;5.68;;;10.10;99.90;;;;;;5132400;27;20134;-80
2023/05/24 04:21:07;;;;;;;25.08;4.53;;;10.10;99.90;;;;;;5113591;27;20130;-80
2023/05/24 04:23:33;;;;;;;36.38;5.97;;;10.10;99.90;;;;;;5132069;27;20129;-80
2023/05/24 04:25:59;;;;;;;24.10;4.90;;;10.20;99.90;;;;;;5131279;27;20031;-80
2023/05/24 04:28:25;;;;;;;33.58;5.38;;;10.20;99.90;;;;;;5099537;27;20047;-80
2023/05/24 04:30:51;;;;;;;29.42;5.63;;;10.30;99.90;;;;;;5114718;27;20122;-80
2023/05/24 04:33:16;;;;;;;25.02;5.25;;;10.40;99.90;;;;;;5114866;27;20047;-80
2023/05/24 04:35:43;;;;;;;36.15;5.82;;;10.30;99.90;;;;;;5129208;27;20050;-80
2023/05/24 04:38:11;;;;;;;31.90;5.78;;;10.30;99.90;;;;;;5111850;27;20031;-80
2023/05/24 04:40:37;;;;;;;23.70;4.80;;;10.30;99.90;;;;;;5108150;27;20482;-80
2023/05/24 04:43:05;;;;;;;30.35;4.97;;;10.30;99.90;;;;;;5131552;27;20039;-79
2023/05/24 04:45:31;;;;;;;31.80;5.85;;;10.30;99.90;;;;;;5129401;27;20403;-80
2023/05/24 04:47:57;;;;;;;34.05;6.35;;;10.30;99.90;;;;;;5128692;27;20047;-80
2023/05/24 04:50:23;;;;;;;24.77;5.25;;;10.30;99.90;;;;;;5109214;27;20034;-80
2023/05/24 04:52:49;;;;;;;36.33;5.75;;;10.30;99.90;;;;;;5114876;27;20473;-80
2023/05/24 04:55:14;;;;;;;23.85;5.60;;;10.30;99.90;;;;;;5114019;27;20045;-80
2023/05/24 04:57:40;;;;;;;26.45;6.00;;;10.30;99.90;;;;;;5129902;27;20398;-81
2023/05/24 05:00:07;;;;;;;35.67;5.88;;;10.30;99.90;;;;;;5130956;27;20047;-80
2023/05/24 05:02:33;;;;;;;29.70;5.18;;;10.30;99.90;;;;;;5131120;27;20121;-79
2023/05/24 05:04:59;;;;;;;29.83;5.88;;;10.40;99.90;;;;;;5149297;27;20050;-80
2023/05/24 05:07:24;;;;;;;28.10;5.57;;;10.40;99.90;;;;;;5131207;27;20058;-81
2023/05/24 05:09:50;;;;;;;26.15;5.05;;;10.40;99.90;;;;;;5130078;27;20027;-80
2023/05/24 05:12:16;;;;;;;31.65;5.75;;;10.40;99.90;;;;;;5110078;27;20043;-80
2023/05/24 05:14:42;;;;;;;29.33;5.75;;;10.50;99.90;;;;;;5126553;27;20046;-80
2023/05/24 05:17:08;;;;;;;24.77;5.53;;;10.60;99.90;;;;;;5114029;27;20034;-80
2023/05/24 05:19:34;;;;;;;28.58;5.40;;;10.70;99.90;;;;;;5149522;27;20517;-80
2023/05/24 05:22:00;;;;;;;28.73;5.75;;;10.80;99.90;;;;;;5131146;27;20054;-81
2023/05/24 05:24:26;;;;;;;33.38;4.57;;;10.90;99.90;;;;;;5128527;27;20051;-80
2023/05/24 05:26:52;;;;;;;24.63;5.25;;;11.00;99.90;;;;;;5130895;27;20122;-80
2023/05/24 05:29:17;;;;;;;30.70;4.97;;;11.10;99.90;;;;;;5130322;27;20148;-80
2023/05/24 05:31:43;;;;;;;27.75;5.68;;;11.20;99.90;;;;;;5129491;27;20046;-80
2023/05/24 05:34:09;;;;;;;34.15;4.95;;;11.30;99.90;;;;;;5125873;27;20047;-80
2023/05/24 05:36:42;;;;;;;27.45;5.10;;;11.30;99.90;;;;;;5131282;27;20342;-80
2023/05/24 05:39:08;;;;;;;31.38;5.13;;;11.30;99.90;;;;;;5129230;27;20043;-80
2023/05/24 05:41:37;;;;;;;32.75;4.75;;;11.40;99.90;;;;;;5109952;27;20039;-81
2023/05/24 05:44:03;;;;;;;34.03;5.45;;;11.40;99.90;;;;;;5110812;27;20042;-81
2023/05/24 05:46:28;;;;;;;22.77;4.32;;;11.40;99.90;;;;;;5130141;27;20224;-80
2023/05/24 05:48:54;;;;;;;29.58;5.00;;;11.50;99.90;;;;;;5109730;27;20502;-80
2023/05/24 05:51:20;;;;;;;26.08;4.97;;;11.50;99.90;;;;;;5094694;27;20180;-80
2023/05/24 05:53:45;;;;;;;29.50;5.25;;;11.60;99.90;;;;;;5124661;27;20071;-80
2023/05/24 05:56:11;;;;;;;31.70;4.85;;;11.70;99.90;;;;;;5124866;27;20048;-80
2023/05/24 05:58:37;;;;;;;28.63;5.47;;;11.70;99.90;;;;;;5126932;27;20048;-80
2023/05/24 06:01:03;;;;;;;27.20;5.30;;;11.80;99.90;;;;;;5109866;27;20078;-80
2023/05/24 06:03:29;;;;;;;30.83;5.72;;;11.80;99.90;;;;;;5145071;27;20074;-80
2023/05/24 06:05:55;;;;;;;25.40;5.13;;;11.90;99.90;;;;;;5127221;27;20078;-80
2023/05/24 06:08:21;;;;;;;23.45;5.47;;;11.90;99.90;;;;;;5110133;27;20049;-81
2023/05/24 06:10:46;;;;;;;30.80;5.53;;;12.00;99.90;;;;;;5120069;27;20125;-80
2023/05/24 06:13:12;;;;;;;30.23;5.57;;;12.10;99.90;;;;;;5119620;27;20047;-80
2023/05/24 06:15:38;;;;;;;26.10;5.35;;;12.10;99.90;;;;;;5126089;27;20059;-80
2023/05/24 06:18:04;;;;;;;28.90;5.18;;;12.00;99.90;;;;;;5106745;27;20756;-80
2023/05/24 06:20:30;;;;;;;27.20;4.75;;;12.00;99.90;;;;;;5110611;27;20134;-80
2023/05/24 06:22:56;;;;;;;23.92;4.35;;;11.90;99.90;;;;;;5099539;27;20149;-80
2023/05/24 06:25:23;;;;;;;21.20;4.13;;;12.00;99.90;;;;;;5129042;27;20130;-81
2023/05/24 06:27:50;;;;;;;20.27;4.32;;;12.10;99.90;;;;;;5126101;27;20031;-80
2023/05/24 06:30:16;;;;;;;20.98;3.92;;;12.20;99.90;;;;;;5117507;27;20039;-80
2023/05/24 06:32:42;;;;;;;24.20;4.85;;;12.30;99.90;;;;;;5110445;27;20039;-80
2023/05/24 06:35:08;;;;;;;24.42;3.90;;;12.40;99.90;;;;;;5120745;27;20045;-80
2023/05/24 06:37:34;;;;;;;21.75;3.72;;;12.50;99.90;;;;;;5123571;28;20253;-80
2023/05/24 06:40:00;;;;;;;22.48;3.65;;;12.40;99.90;;;;;;5092670;28;20482;-80
2023/05/24 06:42:26;;;;;;;17.20;3.35;;;12.50;99.90;;;;;;5111096;28;20043;-80
2023/05/24 06:44:52;;;;;;;21.98;3.88;;;12.50;99.90;;;;;;5110632;28;20069;-79
2023/05/24 06:47:17;;;;;;;16.48;3.20;;;12.60;99.90;;;;;;5111431;28;20461;-81
2023/05/24 06:49:43;;;;;;;16.85;3.70;;;12.50;99.90;;;;;;5108898;28;20051;-81
2023/05/24 06:52:10;;;;;;;19.38;3.55;;;12.70;99.90;;;;;;5125011;28;20039;-81
2023/05/24 06:54:36;;;;;;;41.95;3.95;;;12.90;99.90;;;;;;5117440;28;20058;-80
2023/05/24 06:57:02;;;;;;;16.02;4.28;;;13.10;99.90;;;;;;5128093;27;20038;-80
2023/05/24 06:59:28;;;;;;;23.25;3.85;;;13.10;99.90;;;;;;5147489;27;20054;-80
2023/05/24 07:01:56;;;;;;;18.27;3.35;;;13.10;99.90;;;;;;5128200;27;20057;-80
2023/05/24 07:04:23;;;;;;;17.27;3.33;;;13.10;99.90;;;;;;5111647;27;20046;-80
2023/05/24 07:06:50;;;;;;;16.25;3.42;;;12.90;99.90;;;;;;5129685;27;20050;-80
2023/05/24 07:09:17;;;;;;;18.05;3.47;;;12.90;99.90;;;;;;5115988;27;20111;-80
2023/05/24 07:11:42;;;;;;;19.15;3.42;;;12.70;99.90;;;;;;5129875;27;20394;-80
2023/05/24 07:14:08;;;;;;;18.92;3.28;;;12.70;99.90;;;;;;5140625;27;20047;-79
2023/05/24 07:16:34;;;;;;;14.13;3.15;;;12.60;99.90;;;;;;5111414;27;20039;-80
2023/05/24 07:18:59;;;;;;;19.70;3.20;;;12.80;99.90;;;;;;5126357;27;20057;-80
2023/05/24 07:21:25;;;;;;;14.23;3.15;;;12.90;99.90;;;;;;5129790;27;20063;-81
2023/05/24 07:23:51;;;;;;;17.75;4.07;;;12.90;99.90;;;;;;5125427;27;20039;-80
2023/05/24 07:26:17;;;;;;;18.30;3.40;;;13.00;99.90;;;;;;5132485;27;20050;-80
2023/05/24 07:28:42;;;;;;;16.58;3.58;;;13.30;99.90;;;;;;5111710;27;20374;-81
2023/05/24 07:31:09;;;;;;;16.98;3.60;;;13.50;99.90;;;;;;5128631;27;20074;-80
2023/05/24 07:33:36;;;;;;;20.92;4.00;;;13.70;99.90;;;;;;5110268;27;20408;-80
2023/05/24 07:36:03;;;;;;;18.88;3.28;;;13.90;99.90;;;;;;5129998;27;20113;-80
2023/05/24 07:38:29;;;;;;;16.13;3.38;;;14.10;99.90;;;;;;5140106;27;20122;-79
2023/05/24 07:40:57;;;;;;;15.77;3.30;;;14.40;99.90;;;;;;5110817;27;20053;-80
2023/05/24 07:43:23;;;;;;;16.30;3.92;;;14.50;99.90;;;;;;5127187;27;20050;-80
2023/05/24 07:45:49;;;;;;;18.00;4.10;;;14.50;99.90;;;;;;5113354;27;20049;-80
2023/05/24 07:48:15;;;;;;;16.10;3.72;;;14.30;99.90;;;;;;5148290;27;20052;-81
2023/05/24 07:50:40;;;;;;;18.85;3.50;;;14.20;99.90;;;;;;5128332;27;20043;-80
2023/05/24 07:53:06;;;;;;;21.85;3.85;;;14.00;99.90;;;;;;5108751;27;20039;-80
2023/05/24 07:55:32;;;;;;;16.25;2.85;;;13.80;99.90;;;;;;5128195;27;20035;-80
2023/05/24 07:57:58;;;;;;;14.00;3.38;;;13.90;99.90;;;;;;5129958;27;20062;-81
2023/05/24 08:00:24;;;;;;;15.02;3.05;;;14.00;99.90;;;;;;5129639;27;20049;-81
2023/05/24 08:02:50;;;;;;;17.83;3.60;;;14.20;99.90;;;;;;5152145;27;20046;-80
2023/05/24 08:05:16;;;;;;;15.32;3.30;;;14.10;99.90;;;;;;5132711;27;20043;-80
2023/05/24 08:07:41;;;;;;;14.73;3.38;;;14.10;99.90;;;;;;5120304;27;20039;-81
2023/05/24 08:10:11;;;;;;;12.32;2.65;;;14.20;99.90;;;;;;5114505;27;20398;-80
2023/05/24 08:12:38;;;;;;;14.10;2.78;;;14.30;99.90;;;;;;5104137;27;20047;-80
2023/05/24 08:15:05;;;;;;;14.68;2.40;;;14.30;99.90;;;;;;5110996;27;20526;-80
2023/05/24 08:17:31;;;;;;;9.90;2.90;;;14.30;99.90;;;;;;5120954;27;20135;-80
2023/05/24 08:19:57;;;;;;;14.20;3.00;;;14.20;99.90;;;;;;5109689;27;20104;-79
2023/05/24 08:22:23;;;;;;;17.08;2.88;;;14.00;99.90;;;;;;5126294;27;20402;-80
2023/05/24 08:24:50;;;;;;;13.63;2.88;;;13.90;99.90;;;;;;5114588;27;20138;-80
2023/05/24 08:27:16;;;;;;;15.65;3.15;;;14.00;99.90;;;;;;5132102;27;20473;-80
2023/05/24 08:29:41;;;;;;;13.65;3.00;;;14.20;99.90;;;;;;5132186;27;20142;-80
2023/05/24 08:32:08;;;;;;;13.30;2.70;;;14.30;99.90;;;;;;5151023;27;20078;-80
2023/05/24 08:34:36;;;;;;;15.85;3.17;;;14.60;99.90;;;;;;5123781;27;20114;-80
2023/05/24 08:37:03;;;;;;;13.65;3.45;;;14.90;99.90;;;;;;5144804;27;20106;-80
2023/05/24 08:39:28;;;;;;;13.95;2.72;;;15.30;99.90;;;;;;5122485;27;20039;-80
2023/05/24 08:41:55;;;;;;;15.02;3.53;;;15.50;99.90;;;;;;5101766;27;20057;-81
2023/05/24 08:44:23;;;;;;;15.75;3.42;;;15.50;99.90;;;;;;5129203;27;20042;-80
2023/05/24 08:46:50;;;;;;;16.10;4.03;;;15.40;99.90;;;;;;5128876;27;20059;-80
2023/05/24 08:49:16;;;;;;;11.73;2.88;;;15.30;99.90;;;;;;5130717;27;20050;-80
2023/05/24 08:51:43;;;;;;;14.80;2.47;;;15.30;99.90;;;;;;5128760;27;20508;-80
2023/05/24 08:54:12;;;;;;;18.65;3.50;;;15.30;99.90;;;;;;5127022;27;20050;-80
2023/05/24 08:56:39;;;;;;;14.55;3.55;;;15.20;99.90;;;;;;5122767;27;20043;-80
2023/05/24 08:59:05;;;;;;;10.80;2.90;;;15.10;99.90;;;;;;5147320;27;20034;-81
2023/05/24 09:01:32;;;;;;;12.13;2.80;;;15.20;99.90;;;;;;5128289;27;20047;-80
2023/05/24 09:03:58;;;;;;;22.35;3.88;;;15.10;99.90;;;;;;5130204;27;20043;-80
2023/05/24 09:06:25;;;;;;;14.80;2.80;;;14.90;99.90;;;;;;5129339;27;20096;-80
2023/05/24 09:08:52;;;;;;;15.38;3.72;;;14.80;99.90;;;;;;5130828;27;20046;-79
2023/05/24 09:11:20;;;;;;;18.08;3.20;;;14.70;99.90;;;;;;5129212;27;20043;-80
2023/05/24 09:13:46;;;;;;;11.23;3.17;;;14.70;99.90;;;;;;5131371;27;20087;-81
2023/05/24 09:16:13;;;;;;;19.63;3.88;;;14.60;99.90;;;;;;5113300;27;20477;-81
2023/05/24 09:18:41;;;;;;;16.55;3.60;;;14.40;99.90;;;;;;5131075;27;20718;-81
2023/05/24 09:21:08;;;;;;;18.15;3.80;;;14.20;99.90;;;;;;5130821;27;20114;-81
2023/05/24 09:23:35;;;;;;;19.52;3.72;;;14.10;99.90;;;;;;5130170;27;20374;-80
2023/05/24 09:26:07;;;;;;;15.65;3.47;;;14.00;99.90;;;;;;5109223;27;20393;-81
2023/05/24 09:28:33;;;;;;;16.20;3.05;;;13.90;99.90;;;;;;5117058;27;20070;-80
2023/05/24 09:31:01;;;;;;;15.35;3.10;;;13.90;99.90;;;;;;5109289;27;20481;-80
2023/05/24 09:33:29;;;;;;;17.17;3.38;;;13.80;99.90;;;;;;5129521;27;20047;-80
2023/05/24 09:36:01;;;;;;;18.17;3.42;;;13.90;99.90;;;;;;5146637;27;20047;-81
2023/05/24 09:38:28;;;;;;;19.27;3.45;;;13.80;99.90;;;;;;5109649;27;20082;-80
2023/05/24 09:41:02;;;;;;;20.30;3.83;;;13.80;99.90;;;;;;5126012;27;20506;-80
2023/05/24 09:43:29;;;;;;;15.77;3.30;;;13.90;99.90;;;;;;5119865;27;20089;-80
2023/05/24 09:45:56;;;;;;;12.82;3.35;;;14.00;99.90;;;;;;5148583;27;20042;-80
2023/05/24 09:48:23;;;;;;;13.07;3.00;;;14.20;99.90;;;;;;5127047;27;20047;-80
2023/05/24 09:51:02;;;;;;;15.35;2.90;;;14.20;99.90;;;;;;5126646;27;20043;-80
2023/05/24 09:53:27;;;;;;;12.93;3.40;;;14.40;99.90;;;;;;5143289;27;20035;-80
2023/05/24 09:55:54;;;;;;;20.30;3.70;;;14.50;99.90;;;;;;5148614;27;20034;-80
2023/05/24 09:58:21;;;;;;;13.65;3.08;;;14.70;99.90;;;;;;5127731;27;20058;-81
2023/05/24 10:00:47;;;;;;;14.82;3.05;;;14.80;99.90;;;;;;5113427;27;20417;-81
2023/05/24 10:03:13;;;;;;;12.75;3.00;;;15.00;99.90;;;;;;5128780;27;20039;-80
2023/05/24 10:05:43;;;;;;;17.23;3.25;;;15.30;99.90;;;;;;5129376;27;20376;-80
2023/05/24 10:08:10;;;;;;;11.73;2.60;;;15.20;99.90;;;;;;5129395;27;20422;-80
2023/05/24 10:10:36;;;;;;;13.90;2.88;;;15.30;99.90;;;;;;5129273;27;20074;-80
2023/05/24 10:13:02;;;;;;;13.55;3.50;;;15.30;99.90;;;;;;5128899;27;20074;-80
2023/05/24 10:15:29;;;;;;;11.00;2.33;;;15.30;99.90;;;;;;5129279;27;20055;-81
2023/05/24 10:17:56;;;;;;;11.68;2.60;;;15.10;99.90;;;;;;5130376;27;20043;-80
2023/05/24 10:20:22;;;;;;;14.07;2.95;;;15.10;99.90;;;;;;5147582;27;20047;-80
2023/05/24 10:22:52;;;;;;;12.73;2.42;;;15.30;99.90;;;;;;5148595;27;20513;-80
2023/05/24 10:25:24;;;;;;;14.60;2.95;;;15.60;99.90;;;;;;5119062;27;20192;-80
2023/05/24 10:27:54;;;;;;;18.10;2.60;;;15.90;99.90;;;;;;5109159;28;20047;-81
2023/05/24 10:30:25;;;;;;;12.57;2.75;;;16.10;99.90;;;;;;5120120;27;20074;-80
2023/05/24 10:32:54;;;;;;;13.18;3.10;;;16.10;99.90;;;;;;5116317;27;20502;-81
2023/05/24 10:35:21;;;;;;;10.27;2.50;;;16.10;99.90;;;;;;5130365;27;20064;-80
2023/05/24 10:37:47;;;;;;;24.85;3.45;;;15.80;99.90;;;;;;5129883;27;20042;-81
2023/05/24 10:40:18;;;;;;;21.60;3.22;;;15.50;99.90;;;;;;5125298;28;20500;-81
2023/05/24 10:42:45;;;;;;;18.20;3.40;;;15.10;99.90;;;;;;5098364;27;20030;-80
2023/05/24 10:45:24;;;;;;;15.45;3.03;;;14.90;99.90;;;;;;5128988;27;20063;-80
2023/05/24 10:47:52;;;;;;;18.30;3.45;;;14.70;99.90;;;;;;5147954;27;20189;-80
2023/05/24 10:50:19;;;;;;;15.25;3.55;;;14.60;99.90;;;;;;5112662;27;20523;-80
2023/05/24 10:52:46;;;;;;;15.02;3.30;;;14.60;99.90;;;;;;5126802;28;20043;-80
2023/05/24 10:55:12;;;;;;;14.18;3.25;;;14.50;99.90;;;;;;5121320;27;20046;-80
2023/05/24 10:57:38;;;;;;;18.67;3.85;;;14.50;99.90;;;;;;5109808;28;20043;-80
2023/05/24 11:00:28;;;;;;;18.50;3.70;;;14.40;99.90;;;;;;5144499;27;20033;-80
2023/05/24 11:03:02;;;;;;;14.10;3.40;;;14.50;99.90;;;;;;5116396;28;20383;-80
2023/05/24 11:05:48;;;;;;;23.42;3.85;;;14.50;99.90;;;;;;5147467;27;20043;-80
2023/05/24 11:08:32;;;;;;;22.77;3.88;;;14.50;99.90;;;;;;5128900;27;20084;-81
2023/05/24 11:11:10;;;;;;;14.07;3.08;;;14.40;99.90;;;;;;5146576;27;20398;-80
2023/05/24 11:13:36;;;;;;;22.00;3.53;;;14.40;99.90;;;;;;5099678;27;20057;-80
2023/05/24 11:16:02;;;;;;;11.38;3.38;;;14.30;99.90;;;;;;5126928;27;20051;-80
2023/05/24 11:18:28;;;;;;;16.92;4.10;;;14.30;99.90;;;;;;5125862;28;20063;-80
2023/05/24 11:20:56;;;;;;;17.85;3.70;;;14.30;99.90;;;;;;5122588;27;20051;-81
2023/05/24 11:23:22;;;;;;;17.23;3.65;;;14.40;99.90;;;;;;5125365;28;20169;-80
2023/05/24 11:25:48;;;;;;;18.95;3.85;;;14.60;99.90;;;;;;5137123;27;20450;-81
2023/05/24 11:28:14;;;;;;;16.38;3.88;;;14.60;99.90;;;;;;5126772;28;20378;-80
2023/05/24 11:30:42;;;;;;;19.13;3.63;;;14.60;99.90;;;;;;5119551;27;20047;-80
2023/05/24 11:33:17;;;;;;;14.95;3.33;;;14.50;99.90;;;;;;5109969;28;20093;-81
2023/05/24 11:35:43;;;;;;;18.38;3.80;;;14.50;99.90;;;;;;5123649;27;20043;-80
2023/05/24 11:38:12;;;;;;;16.92;3.75;;;14.40;99.90;;;;;;5125668;28;20094;-80
2023/05/24 11:40:43;;;;;;;14.68;3.05;;;14.40;99.90;;;;;;5121435;27;20528;-80
2023/05/24 11:43:11;;;;;;;13.80;2.97;;;14.60;99.90;;;;;;5099865;28;20111;-82
2023/05/24 11:45:38;;;;;;;15.70;2.63;;;14.70;99.90;;;;;;5125620;27;20039;-82
2023/05/24 11:48:05;;;;;;;18.63;3.00;;;14.70;99.90;;;;;;5126600;28;20082;-80
2023/05/24 11:50:31;;;;;;;18.92;3.65;;;14.70;99.90;;;;;;5122150;27;20074;-81
2023/05/24 11:53:02;;;;;;;21.20;3.60;;;14.50;99.90;;;;;;5116408;27;20054;-80
2023/05/24 11:55:28;;;;;;;17.67;3.00;;;14.40;99.90;;;;;;5147246;27;20092;-81
2023/05/24 11:57:58;;;;;;;15.00;3.28;;;14.40;99.90;;;;;;5151450;27;20043;-80
2023/05/24 12:00:26;;;;;;;19.38;3.42;;;14.50;99.90;;;;;;5128267;27;20087;-80
2023/05/24 12:02:51;;;;;;;14.88;3.28;;;14.50;99.90;;;;;;5122272;27;20495;-80
2023/05/24 12:05:18;;;;;;;19.90;3.83;;;14.70;99.90;;;;;;5114288;27;20091;-80
2023/05/24 12:07:50;;;;;;;21.13;3.30;;;14.90;99.90;;;;;;5121754;27;20134;-81
2023/05/24 12:10:16;;;;;;;16.00;3.13;;;15.00;99.90;;;;;;5130710;27;20091;-81
2023/05/24 12:12:43;;;;;;;15.73;3.17;;;15.00;99.90;;;;;;5128539;27;20083;-80
2023/05/24 12:15:10;;;;;;;15.02;3.65;;;14.90;99.90;;;;;;5119274;27;20042;-80
2023/05/24 12:17:36;;;;;;;18.35;3.50;;;14.90;99.90;;;;;;5128841;27;20110;-80
2023/05/24 12:20:04;;;;;;;14.88;3.30;;;14.90;99.90;;;;;;5128254;27;20039;-80
2023/05/24 12:22:30;;;;;;;18.42;3.42;;;14.90;99.90;;;;;;5122860;27;20435;-80
2023/05/24 12:24:57;;;;;;;24.17;3.75;;;14.80;99.90;;;;;;5114537;27;20235;-81
2023/05/24 12:27:27;;;;;;;15.02;3.22;;;14.80;99.90;;;;;;5129908;27;20088;-81
2023/05/24 12:29:53;;;;;;;16.95;3.45;;;14.80;99.90;;;;;;5129229;27;20070;-80
2023/05/24 12:32:19;;;;;;;14.45;3.20;;;14.80;99.90;;;;;;5124211;27;20142;-80
2023/05/24 12:34:48;;;;;;;20.92;4.15;;;14.80;99.90;;;;;;5128085;27;20062;-80
2023/05/24 12:37:14;;;;;;;18.48;3.33;;;14.90;99.90;;;;;;5130393;27;20047;-80
2023/05/24 12:39:41;;;;;;;15.95;3.13;;;14.90;99.90;;;;;;5114127;27;20054;-80
2023/05/24 12:42:09;;;;;;;19.08;3.83;;;14.90;99.90;;;;;;5138957;27;20111;-80